Time;durP1;ratioP1;P1;durP2;ratioP2;P2;SDS_P1;SDS_P2;PMS_P1;PMS_P2;Temp;Humidity;BMP_temperature;BMP_pressure;BME280_temperature;BME280_humidity;BME280_pressure;Samples;Min_cycle;Max_cycle;Signal;HPM_P1;HPM_P2
2024/01/16 00:02:01;;;;;;;6.82;2.90;;;4.30;63.50;;;;;;2283085;55;21300;-66
2024/01/16 00:04:29;;;;;;;7.82;3.15;;;4.30;63.50;;;;;;2277396;56;20964;-67
2024/01/16 00:07:00;;;;;;;5.72;2.80;;;4.30;63.50;;;;;;2514628;53;21878;-65
2024/01/16 00:09:26;;;;;;;6.78;3.12;;;4.30;63.50;;;;;;2277462;55;20976;-67
2024/01/16 00:11:53;;;;;;;7.97;3.30;;;4.30;63.60;;;;;;2276591;56;21505;-66
2024/01/16 00:14:20;;;;;;;10.90;4.85;;;4.30;63.50;;;;;;2277102;56;20992;-67
2024/01/16 00:16:50;;;;;;;12.88;5.07;;;4.30;63.50;;;;;;2510008;55;20952;-66
2024/01/16 00:19:17;;;;;;;12.23;5.20;;;4.30;63.50;;;;;;2291926;55;20967;-65
2024/01/16 00:21:46;;;;;;;10.35;4.70;;;4.30;63.50;;;;;;2286591;54;20976;-67
2024/01/16 00:24:13;;;;;;;7.72;3.85;;;4.30;63.50;;;;;;2510086;55;20992;-68
2024/01/16 00:26:39;;;;;;;8.63;3.97;;;4.30;63.40;;;;;;2510375;54;20961;-66
2024/01/16 00:29:06;;;;;;;7.97;3.60;;;4.30;63.40;;;;;;2511389;54;21000;-67
2024/01/16 00:31:32;;;;;;;9.50;3.90;;;4.30;63.50;;;;;;2280038;55;20952;-67
2024/01/16 00:33:58;;;;;;;8.68;4.20;;;4.30;63.40;;;;;;2278484;56;21051;-65
2024/01/16 00:36:26;;;;;;;7.37;3.40;;;4.30;63.40;;;;;;2509659;55;21368;-67
2024/01/16 00:38:52;;;;;;;8.40;3.70;;;4.30;63.40;;;;;;2278346;55;20960;-66
2024/01/16 00:41:19;;;;;;;8.20;4.10;;;4.30;63.50;;;;;;2277636;55;21405;-67
2024/01/16 00:43:45;;;;;;;8.00;3.78;;;4.30;63.40;;;;;;2509959;55;21060;-66
2024/01/16 00:46:11;;;;;;;7.03;3.70;;;4.30;63.40;;;;;;2510580;54;21729;-65
2024/01/16 00:48:41;;;;;;;6.57;3.22;;;4.30;63.40;;;;;;2278257;55;20972;-66
2024/01/16 00:51:07;;;;;;;8.95;3.87;;;4.30;63.30;;;;;;2278329;56;21004;-65
2024/01/16 00:53:37;;;;;;;7.15;3.28;;;4.30;63.30;;;;;;2277573;56;20963;-66
2024/01/16 00:56:06;;;;;;;8.77;3.30;;;4.30;63.40;;;;;;2263685;56;21520;-66
2024/01/16 00:58:33;;;;;;;7.05;3.25;;;4.30;63.30;;;;;;2277664;56;20984;-67
2024/01/16 01:00:59;;;;;;;6.65;3.40;;;4.20;63.20;;;;;;2277936;55;20976;-65
2024/01/16 01:03:26;;;;;;;8.43;3.60;;;4.30;63.30;;;;;;2277284;56;21036;-67
2024/01/16 01:05:52;;;;;;;9.18;3.92;;;4.20;63.10;;;;;;2277959;56;20991;-67
2024/01/16 01:08:18;;;;;;;11.05;4.70;;;4.20;63.10;;;;;;2282226;55;21013;-65
2024/01/16 01:10:47;;;;;;;9.77;4.50;;;4.20;63.10;;;;;;2280194;55;20944;-66
2024/01/16 01:13:13;;;;;;;8.75;4.00;;;4.20;63.10;;;;;;2277241;56;20949;-66
2024/01/16 01:15:39;;;;;;;8.73;3.90;;;4.20;63.10;;;;;;2509592;54;20961;-67
2024/01/16 01:18:09;;;;;;;9.27;4.15;;;4.20;63.10;;;;;;2278242;56;21474;-67
2024/01/16 01:20:35;;;;;;;8.68;3.70;;;4.20;63.00;;;;;;2275692;55;21469;-65
2024/01/16 01:23:01;;;;;;;6.65;3.60;;;4.20;63.10;;;;;;2277563;55;20980;-67
2024/01/16 01:25:28;;;;;;;9.25;4.20;;;4.20;63.10;;;;;;2277387;55;21055;-65
2024/01/16 01:27:54;;;;;;;7.72;3.53;;;4.10;63.00;;;;;;2281674;55;22256;-66
2024/01/16 01:30:24;;;;;;;7.20;3.47;;;4.10;62.90;;;;;;2282134;55;20954;-67
2024/01/16 01:32:50;;;;;;;7.90;3.97;;;4.10;62.90;;;;;;2279280;54;20963;-67
2024/01/16 01:35:19;;;;;;;7.00;3.10;;;4.10;62.90;;;;;;2277352;56;20984;-65
2024/01/16 01:37:47;;;;;;;6.60;3.42;;;4.10;62.90;;;;;;2510219;55;20951;-67
2024/01/16 01:40:15;;;;;;;8.95;3.30;;;4.10;62.90;;;;;;2277017;55;21464;-66
2024/01/16 01:42:43;;;;;;;7.35;3.55;;;4.10;62.90;;;;;;2509880;55;21694;-66
2024/01/16 01:45:10;;;;;;;7.95;3.30;;;4.10;62.90;;;;;;2509418;54;20932;-67
2024/01/16 01:47:40;;;;;;;8.38;3.60;;;4.00;62.80;;;;;;2277165;56;21520;-66
2024/01/16 01:50:08;;;;;;;7.95;3.60;;;4.00;62.80;;;;;;2509698;54;20956;-66
2024/01/16 01:52:34;;;;;;;8.07;3.47;;;4.00;62.90;;;;;;2277165;55;20971;-66
2024/01/16 01:55:01;;;;;;;9.63;4.05;;;4.00;62.90;;;;;;2278599;55;21474;-65
2024/01/16 01:57:27;;;;;;;9.52;4.62;;;4.00;62.90;;;;;;2284159;55;20953;-66
2024/01/16 01:59:54;;;;;;;9.50;4.32;;;4.00;62.90;;;;;;2276911;56;21055;-65
2024/01/16 02:02:21;;;;;;;9.93;4.40;;;4.00;62.90;;;;;;2283259;55;20934;-67
2024/01/16 02:04:48;;;;;;;8.95;4.07;;;3.90;62.80;;;;;;2512706;53;20938;-67
2024/01/16 02:07:15;;;;;;;9.52;4.10;;;3.90;62.80;;;;;;2278416;55;21296;-66
2024/01/16 02:09:43;;;;;;;9.68;4.10;;;3.90;62.90;;;;;;2509469;54;21153;-66
2024/01/16 02:12:09;;;;;;;9.60;3.83;;;3.90;62.90;;;;;;2288633;55;21009;-66
2024/01/16 02:14:36;;;;;;;10.05;4.50;;;3.90;63.50;;;;;;2484982;55;20964;-67
2024/01/16 02:17:04;;;;;;;11.65;5.18;;;3.90;62.90;;;;;;2278041;55;21475;-67
2024/01/16 02:19:33;;;;;;;10.23;4.47;;;3.90;62.90;;;;;;2527918;53;21440;-66
2024/01/16 02:22:00;;;;;;;11.30;4.85;;;3.90;62.80;;;;;;2285488;55;20981;-65
2024/01/16 02:24:27;;;;;;;11.32;4.43;;;3.90;62.80;;;;;;2283012;55;21030;-65
2024/01/16 02:26:53;;;;;;;10.02;3.97;;;3.90;62.80;;;;;;2277404;55;20983;-65
2024/01/16 02:29:20;;;;;;;9.68;4.40;;;3.90;62.80;;;;;;2277277;56;21516;-64
2024/01/16 02:31:46;;;;;;;7.78;3.95;;;3.80;62.70;;;;;;2276693;55;21008;-65
2024/01/16 02:34:13;;;;;;;7.62;3.75;;;3.80;62.60;;;;;;2277420;55;21296;-67
2024/01/16 02:36:40;;;;;;;7.10;3.37;;;3.80;62.70;;;;;;2277192;56;20948;-66
2024/01/16 02:39:07;;;;;;;7.75;3.40;;;3.80;62.60;;;;;;2277417;56;20956;-65
2024/01/16 02:41:34;;;;;;;7.70;3.28;;;3.80;62.60;;;;;;2508948;55;21000;-65
2024/01/16 02:44:00;;;;;;;7.50;3.10;;;3.80;62.60;;;;;;2277128;56;21043;-66
2024/01/16 02:46:27;;;;;;;6.93;3.33;;;3.70;62.50;;;;;;2276840;56;21680;-65
2024/01/16 02:48:53;;;;;;;8.88;3.85;;;3.80;62.60;;;;;;2277678;56;20960;-66
2024/01/16 02:51:20;;;;;;;8.48;3.42;;;3.70;62.40;;;;;;2276735;56;21029;-66
2024/01/16 02:53:46;;;;;;;8.05;3.78;;;3.70;62.40;;;;;;2509761;54;20944;-66
2024/01/16 02:56:12;;;;;;;7.80;3.67;;;3.70;62.40;;;;;;2277226;55;20980;-65
2024/01/16 02:58:39;;;;;;;6.70;3.33;;;3.70;62.30;;;;;;2282265;55;21458;-66
2024/01/16 03:01:07;;;;;;;6.43;3.17;;;3.60;62.20;;;;;;2278118;55;21496;-67
2024/01/16 03:03:33;;;;;;;5.85;2.85;;;3.60;62.20;;;;;;2276487;56;21367;-66
2024/01/16 03:06:00;;;;;;;6.55;3.00;;;3.50;62.10;;;;;;2277218;55;21288;-67
2024/01/16 03:08:26;;;;;;;6.32;2.75;;;3.50;62.20;;;;;;2276594;56;21201;-66
2024/01/16 03:10:53;;;;;;;7.93;3.45;;;3.50;62.20;;;;;;2282571;54;21013;-64
2024/01/16 03:13:20;;;;;;;7.78;3.05;;;3.50;62.20;;;;;;2277561;55;20949;-64
2024/01/16 03:15:49;;;;;;;8.05;3.55;;;3.50;62.20;;;;;;2276587;56;20960;-65
2024/01/16 03:18:15;;;;;;;6.25;2.90;;;3.40;62.20;;;;;;2277499;56;20956;-65
2024/01/16 03:20:42;;;;;;;7.15;2.90;;;3.40;62.10;;;;;;2276453;55;20942;-66
2024/01/16 03:23:08;;;;;;;8.73;3.35;;;3.30;62.00;;;;;;2509654;54;20956;-67
2024/01/16 03:25:38;;;;;;;7.57;3.58;;;3.30;62.00;;;;;;2276555;56;20986;-65
2024/01/16 03:28:07;;;;;;;7.62;3.12;;;3.30;62.00;;;;;;2277697;56;21252;-64
2024/01/16 03:30:36;;;;;;;7.78;3.22;;;3.20;62.00;;;;;;2276410;56;21011;-66
2024/01/16 03:33:04;;;;;;;8.48;3.08;;;3.20;61.90;;;;;;2513318;53;20973;-66
2024/01/16 03:35:31;;;;;;;7.82;2.67;;;3.20;61.90;;;;;;2508516;54;20992;-66
2024/01/16 03:37:57;;;;;;;7.55;3.40;;;3.10;61.80;;;;;;2509431;55;21016;-66
2024/01/16 03:40:25;;;;;;;6.53;2.50;;;3.10;61.80;;;;;;2276597;56;21126;-65
2024/01/16 03:42:51;;;;;;;7.05;2.80;;;3.00;61.80;;;;;;2277063;55;21417;-64
2024/01/16 03:45:18;;;;;;;6.22;2.60;;;3.00;61.80;;;;;;2277595;56;20948;-66
2024/01/16 03:47:46;;;;;;;6.07;2.47;;;2.90;61.70;;;;;;2510683;54;20928;-65
2024/01/16 03:50:12;;;;;;;8.73;2.92;;;2.90;61.70;;;;;;2278790;55;21023;-66
2024/01/16 03:52:38;;;;;;;4.62;2.20;;;2.80;61.50;;;;;;2509080;55;20972;-65
2024/01/16 03:55:06;;;;;;;8.00;2.67;;;2.90;61.70;;;;;;2276914;56;21484;-65
2024/01/16 03:57:33;;;;;;;7.25;3.22;;;2.70;61.50;;;;;;2276016;55;20980;-64
2024/01/16 03:59:59;;;;;;;6.03;2.72;;;2.70;61.50;;;;;;2280688;56;21378;-65
2024/01/16 04:02:26;;;;;;;5.75;2.20;;;2.60;61.40;;;;;;2279732;55;20974;-66
2024/01/16 04:04:52;;;;;;;6.15;2.75;;;2.60;61.50;;;;;;2509641;54;20984;-66
2024/01/16 04:07:18;;;;;;;6.32;2.42;;;2.50;61.50;;;;;;2278022;56;20935;-64
2024/01/16 04:09:45;;;;;;;6.80;2.85;;;2.50;61.50;;;;;;2276909;56;21085;-66
2024/01/16 04:12:11;;;;;;;5.57;2.70;;;2.40;61.50;;;;;;2276916;55;20924;-66
2024/01/16 04:14:37;;;;;;;6.53;3.10;;;2.40;61.50;;;;;;2277271;56;21744;-64
2024/01/16 04:17:04;;;;;;;5.47;2.70;;;2.40;61.60;;;;;;2277548;56;20956;-65
2024/01/16 04:19:33;;;;;;;6.60;2.90;;;2.30;61.60;;;;;;2277050;55;20944;-65
2024/01/16 04:22:01;;;;;;;5.35;2.90;;;2.20;61.60;;;;;;2278052;55;20976;-66
2024/01/16 04:24:27;;;;;;;7.30;2.40;;;2.20;61.60;;;;;;2508384;54;21023;-66
2024/01/16 04:26:54;;;;;;;6.25;2.50;;;2.20;61.70;;;;;;2509239;54;20952;-65
2024/01/16 04:29:20;;;;;;;5.72;2.47;;;2.20;61.70;;;;;;2277272;56;21031;-65
2024/01/16 04:31:47;;;;;;;6.12;2.65;;;2.10;61.70;;;;;;2277381;55;20933;-65
2024/01/16 04:34:13;;;;;;;7.50;2.85;;;2.10;61.70;;;;;;2277336;56;21008;-64
2024/01/16 04:36:40;;;;;;;5.00;2.60;;;2.10;61.70;;;;;;2509702;54;20971;-65
2024/01/16 04:39:06;;;;;;;7.37;2.58;;;2.00;61.60;;;;;;2509534;54;21015;-65
2024/01/16 04:41:35;;;;;;;5.65;2.62;;;2.00;61.70;;;;;;2292524;54;20993;-65
2024/01/16 04:44:02;;;;;;;6.62;2.30;;;2.00;61.70;;;;;;2509686;54;20985;-66
2024/01/16 04:46:29;;;;;;;10.32;3.72;;;1.90;61.70;;;;;;2277032;56;20959;-66
2024/01/16 04:48:55;;;;;;;9.05;4.20;;;1.90;61.80;;;;;;2276801;56;20976;-65
2024/01/16 04:51:23;;;;;;;9.50;4.03;;;1.90;61.80;;;;;;2277207;56;20996;-65
2024/01/16 04:53:49;;;;;;;7.60;3.85;;;1.90;61.90;;;;;;2276926;56;20960;-65
2024/01/16 04:56:15;;;;;;;5.72;2.90;;;1.80;61.80;;;;;;2277438;55;20921;-67
2024/01/16 04:58:42;;;;;;;7.78;2.90;;;1.80;61.80;;;;;;2277044;55;20954;-64
2024/01/16 05:01:08;;;;;;;8.73;3.53;;;1.80;61.80;;;;;;2277205;55;20936;-66
2024/01/16 05:03:36;;;;;;;6.47;2.67;;;1.80;61.80;;;;;;2277847;56;20919;-65
2024/01/16 05:06:12;;;;;;;8.40;3.12;;;1.70;61.70;;;;;;2277638;55;21023;-66
2024/01/16 05:08:38;;;;;;;6.55;3.00;;;1.70;61.70;;;;;;2277184;56;21735;-64
2024/01/16 05:11:04;;;;;;;6.72;3.20;;;1.70;61.80;;;;;;2283239;55;20966;-65
2024/01/16 05:13:31;;;;;;;8.18;3.58;;;1.60;61.70;;;;;;2279382;55;21004;-65
2024/01/16 05:15:57;;;;;;;8.40;3.53;;;1.60;61.80;;;;;;2276720;55;20943;-66
2024/01/16 05:18:26;;;;;;;7.87;3.15;;;1.60;61.80;;;;;;2277433;55;20968;-66
2024/01/16 05:20:53;;;;;;;7.90;2.92;;;1.60;61.90;;;;;;2276875;56;20988;-67
2024/01/16 05:23:19;;;;;;;7.72;3.30;;;1.60;61.90;;;;;;2277480;55;21268;-65
2024/01/16 05:25:45;;;;;;;7.20;3.15;;;1.60;62.00;;;;;;2509317;54;20960;-65
2024/01/16 05:28:12;;;;;;;8.05;3.03;;;1.50;61.90;;;;;;2277153;56;20964;-66
2024/01/16 05:30:38;;;;;;;9.57;2.80;;;1.50;61.90;;;;;;2509236;54;20956;-66
2024/01/16 05:33:05;;;;;;;6.53;2.90;;;1.50;61.90;;;;;;2277361;56;21002;-65
2024/01/16 05:35:31;;;;;;;6.78;2.80;;;1.40;61.80;;;;;;2508525;54;20977;-65
2024/01/16 05:37:59;;;;;;;7.60;2.92;;;1.40;61.80;;;;;;2282914;55;21010;-66
2024/01/16 05:40:29;;;;;;;7.28;3.20;;;1.40;61.90;;;;;;2509723;54;21031;-66
2024/01/16 05:42:56;;;;;;;6.85;3.17;;;1.40;61.80;;;;;;2277004;55;21029;-66
2024/01/16 05:45:22;;;;;;;8.10;3.33;;;1.40;61.90;;;;;;2277550;56;20976;-66
2024/01/16 05:47:49;;;;;;;7.53;3.15;;;1.30;61.70;;;;;;2511315;53;21026;-65
2024/01/16 05:50:18;;;;;;;7.50;3.10;;;1.30;61.70;;;;;;2277586;54;21142;-65
2024/01/16 05:52:44;;;;;;;9.02;3.15;;;1.30;61.80;;;;;;2508986;55;20992;-67
2024/01/16 05:55:14;;;;;;;9.60;3.80;;;1.30;61.80;;;;;;2509587;54;21469;-65
2024/01/16 05:57:43;;;;;;;10.77;4.62;;;1.20;61.70;;;;;;2509709;54;20984;-66
2024/01/16 06:00:12;;;;;;;15.35;5.90;;;1.20;61.70;;;;;;2277183;56;21023;-65
2024/01/16 06:02:38;;;;;;;9.73;4.15;;;1.20;61.70;;;;;;2277584;56;20979;-67
2024/01/16 06:05:05;;;;;;;11.38;4.68;;;1.10;61.70;;;;;;2508772;55;20956;-66
2024/01/16 06:07:37;;;;;;;12.65;5.20;;;1.10;61.70;;;;;;2277010;56;21748;-66
2024/01/16 06:10:04;;;;;;;11.32;5.28;;;1.10;61.70;;;;;;2282975;54;21029;-66
2024/01/16 06:12:32;;;;;;;13.15;5.55;;;1.10;61.70;;;;;;2277480;55;21028;-65
2024/01/16 06:14:59;;;;;;;9.18;4.07;;;1.10;61.70;;;;;;2508564;54;21360;-66
2024/01/16 06:17:26;;;;;;;11.48;5.10;;;1.00;61.60;;;;;;2277073;56;21564;-65
2024/01/16 06:19:53;;;;;;;13.85;5.53;;;1.00;61.60;;;;;;2277292;56;20968;-66
2024/01/16 06:22:21;;;;;;;9.85;4.65;;;1.00;61.60;;;;;;2509139;55;21272;-66
2024/01/16 06:24:47;;;;;;;9.45;4.57;;;1.00;61.60;;;;;;2509456;54;21421;-65
2024/01/16 06:27:18;;;;;;;9.63;4.32;;;0.90;61.50;;;;;;2276736;56;20920;-64
2024/01/16 06:29:46;;;;;;;9.68;3.87;;;0.90;61.50;;;;;;2276356;56;21087;-66
2024/01/16 06:32:12;;;;;;;9.93;4.22;;;0.80;61.30;;;;;;2508600;55;20940;-66
2024/01/16 06:34:39;;;;;;;7.78;3.65;;;0.80;61.20;;;;;;2276541;55;21341;-66
2024/01/16 06:37:06;;;;;;;9.32;4.53;;;0.70;61.20;;;;;;2282573;55;20950;-65
2024/01/16 06:39:33;;;;;;;7.72;3.42;;;0.70;61.20;;;;;;2276514;56;20968;-64
2024/01/16 06:41:59;;;;;;;7.40;3.35;;;0.70;61.40;;;;;;2508001;55;20963;-65
2024/01/16 06:44:26;;;;;;;9.02;4.30;;;0.70;61.50;;;;;;2509279;54;21433;-64
2024/01/16 06:46:52;;;;;;;8.98;3.30;;;0.60;61.50;;;;;;2509107;54;21457;-65
2024/01/16 06:49:18;;;;;;;6.90;3.17;;;0.60;61.50;;;;;;2509251;54;20932;-66
2024/01/16 06:51:47;;;;;;;8.23;3.60;;;0.60;61.40;;;;;;2508834;54;21032;-65
2024/01/16 06:54:13;;;;;;;11.85;4.07;;;0.50;61.30;;;;;;2277329;55;20972;-65
2024/01/16 06:56:39;;;;;;;7.72;3.40;;;0.50;61.30;;;;;;2277859;56;21044;-66
2024/01/16 06:59:05;;;;;;;8.70;4.07;;;0.50;61.30;;;;;;2277176;55;20948;-67
2024/01/16 07:01:33;;;;;;;9.18;4.10;;;0.40;61.30;;;;;;2508808;54;21012;-66
2024/01/16 07:03:59;;;;;;;9.57;4.12;;;0.40;61.30;;;;;;2282529;55;21451;-65
2024/01/16 07:06:25;;;;;;;10.73;4.30;;;0.40;61.40;;;;;;2277175;55;20920;-65
2024/01/16 07:08:52;;;;;;;7.12;3.60;;;0.40;61.40;;;;;;2276667;55;21103;-66
2024/01/16 07:11:18;;;;;;;10.40;4.32;;;0.30;61.30;;;;;;2508530;54;20952;-64
2024/01/16 07:13:45;;;;;;;7.97;3.72;;;0.30;61.30;;;;;;2277150;55;21047;-66
2024/01/16 07:16:11;;;;;;;11.10;4.93;;;0.30;61.40;;;;;;2276380;56;20952;-65
2024/01/16 07:18:38;;;;;;;9.65;3.92;;;0.20;61.30;;;;;;2509273;55;21557;-65
2024/01/16 07:21:16;;;;;;;10.45;4.47;;;0.20;62.10;;;;;;2276637;55;21410;-65
2024/01/16 07:23:42;;;;;;;9.75;4.75;;;0.20;61.40;;;;;;2509781;55;21873;-66
2024/01/16 07:26:09;;;;;;;10.95;4.50;;;0.20;61.40;;;;;;2508669;54;20999;-66
2024/01/16 07:28:35;;;;;;;11.38;4.45;;;0.20;61.50;;;;;;2509094;54;20980;-66
2024/01/16 07:31:01;;;;;;;9.80;4.12;;;0.10;61.40;;;;;;2276650;56;20925;-64
2024/01/16 07:33:29;;;;;;;15.70;5.20;;;0.10;61.50;;;;;;2277269;56;21545;-66
2024/01/16 07:35:55;;;;;;;12.37;5.07;;;0.10;61.50;;;;;;2276923;56;21549;-66
2024/01/16 07:38:22;;;;;;;10.73;5.05;;;0.10;61.60;;;;;;2276800;55;20960;-65
2024/01/16 07:40:49;;;;;;;9.32;4.87;;;0.10;61.60;;;;;;2509675;54;21043;-65
2024/01/16 07:43:15;;;;;;;9.57;4.55;;;0.00;61.60;;;;;;2276389;55;21020;-66
2024/01/16 07:45:41;;;;;;;9.18;3.80;;;0.00;61.60;;;;;;2277542;56;21056;-65
2024/01/16 07:48:08;;;;;;;11.18;5.00;;;0.00;61.70;;;;;;2508817;54;20962;-65
2024/01/16 07:50:37;;;;;;;14.55;5.15;;;0.00;61.80;;;;;;2276748;56;21019;-64
2024/01/16 07:53:03;;;;;;;8.77;4.47;;;0.00;61.90;;;;;;2280537;55;21498;-66
2024/01/16 07:55:32;;;;;;;9.15;4.15;;;0.00;61.90;;;;;;2295712;54;21064;-65
2024/01/16 07:57:58;;;;;;;14.40;6.85;;;0.00;62.00;;;;;;2277542;56;20921;-65
2024/01/16 08:00:27;;;;;;;14.07;6.53;;;0.00;62.00;;;;;;2262089;56;21016;-65
2024/01/16 08:02:54;;;;;;;18.33;8.02;;;0.00;62.00;;;;;;2277246;56;20929;-65
2024/01/16 08:05:24;;;;;;;14.02;7.30;;;0.00;62.10;;;;;;2509641;54;20984;-65
2024/01/16 08:07:51;;;;;;;13.88;6.57;;;0.00;62.20;;;;;;2277343;56;20983;-66
2024/01/16 08:10:17;;;;;;;18.20;7.97;;;0.00;62.20;;;;;;2276642;55;20964;-66
2024/01/16 08:12:47;;;;;;;15.45;7.40;;;0.00;62.30;;;;;;2509756;54;21056;-66
2024/01/16 08:15:22;;;;;;;17.27;8.13;;;0.00;62.40;;;;;;2276764;55;21019;-66
2024/01/16 08:17:49;;;;;;;15.25;7.47;;;0.00;62.40;;;;;;2277233;56;21493;-65
2024/01/16 08:20:16;;;;;;;17.40;8.20;;;0.10;62.60;;;;;;2276490;56;20960;-66
2024/01/16 08:22:42;;;;;;;16.48;7.57;;;0.10;63.50;;;;;;2277402;56;21025;-66
2024/01/16 08:25:08;;;;;;;14.82;7.37;;;0.10;63.00;;;;;;2277250;56;20936;-65
2024/01/16 08:27:37;;;;;;;16.65;7.10;;;0.10;62.90;;;;;;2509179;54;20949;-65
2024/01/16 08:30:05;;;;;;;14.63;7.70;;;0.20;63.10;;;;;;2509402;54;20952;-67
2024/01/16 08:32:32;;;;;;;14.13;7.20;;;0.20;63.10;;;;;;2276999;55;21461;-65
2024/01/16 08:34:58;;;;;;;13.48;6.95;;;0.20;63.20;;;;;;2277367;55;21027;-65
2024/01/16 08:37:25;;;;;;;15.65;7.43;;;0.20;63.20;;;;;;2280684;55;20973;-66
2024/01/16 08:39:51;;;;;;;14.05;7.10;;;0.30;63.40;;;;;;2279580;54;21705;-66
2024/01/16 08:42:20;;;;;;;13.35;6.90;;;0.40;63.60;;;;;;2280289;55;20936;-65
2024/01/16 08:44:47;;;;;;;12.05;6.12;;;0.40;63.60;;;;;;2279956;55;20953;-66
2024/01/16 08:47:14;;;;;;;10.90;5.57;;;0.40;63.70;;;;;;2508735;54;21008;-65
2024/01/16 08:49:40;;;;;;;12.85;6.30;;;0.50;63.80;;;;;;2277105;55;21429;-65
2024/01/16 08:52:07;;;;;;;13.38;5.95;;;0.50;63.90;;;;;;2276863;55;21769;-65
2024/01/16 08:54:33;;;;;;;12.65;5.55;;;0.60;64.00;;;;;;2277326;56;20960;-66
2024/01/16 08:56:59;;;;;;;10.98;5.00;;;0.60;64.10;;;;;;2509354;55;20960;-66
2024/01/16 08:59:26;;;;;;;10.20;5.07;;;0.80;64.30;;;;;;2509414;54;20992;-65
2024/01/16 09:01:52;;;;;;;10.32;4.75;;;0.80;64.30;;;;;;2277736;56;21015;-67
2024/01/16 09:04:18;;;;;;;12.00;5.55;;;0.80;64.20;;;;;;2276607;55;21512;-66
2024/01/16 09:06:45;;;;;;;11.02;5.68;;;0.90;64.30;;;;;;2509905;54;21364;-65
2024/01/16 09:09:12;;;;;;;12.93;5.85;;;1.00;64.30;;;;;;2276856;56;20960;-66
2024/01/16 09:11:38;;;;;;;13.27;5.85;;;1.00;64.20;;;;;;2509901;54;21067;-66
2024/01/16 09:14:05;;;;;;;12.73;5.60;;;1.10;64.30;;;;;;2508950;55;20956;-65
2024/01/16 09:16:31;;;;;;;9.35;4.82;;;1.10;64.20;;;;;;2508534;55;21270;-65
2024/01/16 09:18:57;;;;;;;9.38;4.47;;;1.20;64.20;;;;;;2262868;56;21032;-66
2024/01/16 09:21:25;;;;;;;10.50;4.80;;;1.20;64.20;;;;;;2508943;54;21393;-66
2024/01/16 09:23:52;;;;;;;7.72;3.80;;;1.30;64.20;;;;;;2277620;56;21487;-67
2024/01/16 09:26:19;;;;;;;8.98;4.18;;;1.30;64.20;;;;;;2276688;55;21008;-65
2024/01/16 09:28:45;;;;;;;7.00;3.08;;;1.30;64.10;;;;;;2277684;55;20980;-65
2024/01/16 09:31:11;;;;;;;8.85;4.10;;;1.40;64.20;;;;;;2281108;54;21294;-65
2024/01/16 09:33:38;;;;;;;8.65;3.75;;;1.40;64.20;;;;;;2289613;55;21001;-65
2024/01/16 09:36:05;;;;;;;8.25;3.35;;;1.50;64.30;;;;;;2509891;54;21012;-66
2024/01/16 09:38:31;;;;;;;11.23;3.90;;;1.50;64.20;;;;;;2276938;55;20988;-66
2024/01/16 09:41:11;;;;;;;8.20;4.07;;;1.60;64.30;;;;;;2263049;56;20956;-66
2024/01/16 09:43:37;;;;;;;7.82;3.72;;;1.60;64.30;;;;;;2277157;56;21797;-66
2024/01/16 09:46:04;;;;;;;8.32;3.62;;;1.70;64.40;;;;;;2276705;55;21438;-66
2024/01/16 09:48:32;;;;;;;11.68;3.85;;;1.70;64.30;;;;;;2509226;54;21354;-67
2024/01/16 09:51:01;;;;;;;8.93;3.80;;;1.80;64.40;;;;;;2277935;56;20943;-66
2024/01/16 09:53:28;;;;;;;9.73;4.05;;;1.80;64.40;;;;;;2282791;54;21056;-66
2024/01/16 09:55:55;;;;;;;9.00;3.50;;;1.90;64.50;;;;;;2277441;56;20964;-66
2024/01/16 09:58:21;;;;;;;9.02;4.47;;;1.90;64.40;;;;;;2275694;56;21413;-66
2024/01/16 10:00:50;;;;;;;11.05;4.35;;;2.00;64.40;;;;;;2277319;56;21818;-66
2024/01/16 10:03:16;;;;;;;10.18;5.47;;;2.00;64.40;;;;;;2276089;55;21722;-68
2024/01/16 10:05:43;;;;;;;8.25;4.03;;;2.10;64.50;;;;;;2277128;56;21776;-67
2024/01/16 10:08:12;;;;;;;6.60;3.50;;;2.10;64.50;;;;;;2510552;53;21034;-66
2024/01/16 10:10:39;;;;;;;10.07;4.18;;;2.20;64.50;;;;;;2279205;54;20975;-67
2024/01/16 10:13:08;;;;;;;7.72;3.65;;;2.20;64.50;;;;;;2276988;55;20981;-66
2024/01/16 10:15:34;;;;;;;9.95;4.12;;;2.30;64.60;;;;;;2276311;56;20984;-66
2024/01/16 10:18:00;;;;;;;8.68;3.92;;;2.30;64.50;;;;;;2277219;56;21044;-66
2024/01/16 10:20:34;;;;;;;8.55;4.35;;;2.40;64.70;;;;;;2508611;55;20983;-66
2024/01/16 10:23:00;;;;;;;12.15;5.18;;;2.40;64.80;;;;;;2277362;56;21464;-66
2024/01/16 10:25:26;;;;;;;10.77;6.22;;;2.50;65.00;;;;;;2276074;55;21003;-67
2024/01/16 10:28:03;;;;;;;9.07;5.03;;;2.60;65.20;;;;;;2512774;53;21040;-67
2024/01/16 10:30:31;;;;;;;11.88;4.87;;;2.70;65.30;;;;;;2261609;56;21025;-66
2024/01/16 10:33:12;;;;;;;10.07;5.35;;;2.70;65.60;;;;;;2277480;56;21035;-66
2024/01/16 10:35:38;;;;;;;9.27;4.75;;;2.80;65.70;;;;;;2277062;56;21099;-67
2024/01/16 10:38:06;;;;;;;9.60;4.50;;;2.90;66.00;;;;;;2509786;54;20944;-67
2024/01/16 10:40:34;;;;;;;13.38;7.15;;;3.00;66.10;;;;;;2276915;56;20996;-67
2024/01/16 10:43:04;;;;;;;13.07;6.70;;;3.20;66.30;;;;;;2509332;55;21012;-66
2024/01/16 10:45:31;;;;;;;8.75;5.03;;;3.30;66.30;;;;;;2276512;55;20956;-67
2024/01/16 10:48:04;;;;;;;16.15;7.28;;;3.40;66.40;;;;;;2277298;55;20984;-66
2024/01/16 10:50:34;;;;;;;11.30;6.20;;;3.50;66.20;;;;;;2276526;56;20980;-66
2024/01/16 10:53:04;;;;;;;11.20;5.32;;;3.60;66.20;;;;;;2277229;56;21351;-67
2024/01/16 10:55:30;;;;;;;22.33;10.63;;;3.60;66.00;;;;;;2277386;56;20983;-67
2024/01/16 10:58:00;;;;;;;18.55;9.70;;;3.70;66.00;;;;;;2276716;56;21172;-68
2024/01/16 11:00:28;;;;;;;14.68;7.12;;;3.80;66.10;;;;;;2522780;54;21462;-66
2024/01/16 11:03:06;;;;;;;12.02;5.95;;;3.90;66.20;;;;;;2278609;55;21810;-66
2024/01/16 11:05:33;;;;;;;10.07;5.45;;;4.00;66.40;;;;;;2508716;54;21080;-67
2024/01/16 11:08:01;;;;;;;11.85;5.53;;;4.10;66.40;;;;;;2510922;54;21508;-66
2024/01/16 11:10:27;;;;;;;11.50;5.43;;;4.20;66.50;;;;;;2511645;53;21788;-67
2024/01/16 11:12:54;;;;;;;9.60;5.25;;;4.20;66.40;;;;;;2509628;54;21816;-67
2024/01/16 11:15:20;;;;;;;8.38;4.78;;;4.30;66.60;;;;;;2276973;55;21899;-66
2024/01/16 11:17:47;;;;;;;11.02;5.40;;;4.40;66.70;;;;;;2277217;56;20952;-68
2024/01/16 11:20:14;;;;;;;14.98;7.00;;;4.50;66.90;;;;;;2276522;56;21726;-68
2024/01/16 11:22:46;;;;;;;14.57;6.85;;;4.60;67.30;;;;;;2277275;56;20984;-66
2024/01/16 11:25:14;;;;;;;11.40;6.00;;;4.80;67.50;;;;;;2508879;54;20987;-65
2024/01/16 11:27:41;;;;;;;10.07;5.93;;;4.90;67.60;;;;;;2276451;55;21770;-67
2024/01/16 11:30:09;;;;;;;8.88;5.22;;;5.00;67.80;;;;;;2277549;55;21008;-66
2024/01/16 11:32:40;;;;;;;9.52;4.62;;;5.20;67.90;;;;;;2277416;56;20960;-68
2024/01/16 11:35:11;;;;;;;9.85;4.72;;;5.30;67.60;;;;;;2277416;56;20944;-67
2024/01/16 11:37:38;;;;;;;9.90;4.87;;;5.20;67.30;;;;;;2276746;56;20972;-66
2024/01/16 11:40:23;;;;;;;8.13;4.35;;;5.50;67.20;;;;;;2277593;55;21059;-65
2024/01/16 11:42:50;;;;;;;8.18;4.32;;;5.60;66.20;;;;;;2277526;55;21090;-65
2024/01/16 11:45:59;;;;;;;8.00;4.40;;;5.70;66.70;;;;;;2509258;55;21016;-65
2024/01/16 11:48:25;;;;;;;9.88;4.12;;;5.90;65.40;;;;;;2276797;56;21007;-65
2024/01/16 11:50:53;;;;;;;7.95;3.80;;;5.90;66.30;;;;;;2277415;56;20976;-68
2024/01/16 11:54:23;;;;;;;7.25;3.85;;;6.00;66.10;;;;;;2277206;56;21587;-65
2024/01/16 11:57:20;;;;;;;7.22;3.33;;;6.00;64.40;;;;;;2277475;56;20996;-66
2024/01/16 12:00:14;;;;;;;8.25;4.30;;;6.10;65.00;;;;;;2277710;55;20972;-67
2024/01/16 12:02:54;;;;;;;9.27;4.37;;;6.10;64.50;;;;;;2277481;55;21055;-66
2024/01/16 12:05:22;;;;;;;7.50;3.70;;;6.10;64.50;;;;;;2304390;54;21311;-66
2024/01/16 12:07:54;;;;;;;7.47;3.45;;;6.10;64.80;;;;;;2512459;54;20999;-66
2024/01/16 12:10:21;;;;;;;;;;;6.10;64.70;;;;;;2512171;55;20988;-68
2024/01/16 12:12:57;;;;;;;8.60;3.75;;;6.10;63.50;;;;;;2277596;56;20633;-67
2024/01/16 12:15:25;;;;;;;8.48;4.00;;;6.10;64.70;;;;;;2277096;55;21012;-66
2024/01/16 12:18:00;;;;;;;7.80;3.60;;;6.10;64.50;;;;;;2277578;56;21007;-67
2024/01/16 12:20:29;;;;;;;7.37;3.30;;;6.10;64.40;;;;;;2276561;56;20953;-68
2024/01/16 12:22:59;;;;;;;8.63;3.65;;;6.00;64.40;;;;;;2277633;55;21374;-65
2024/01/16 12:25:30;;;;;;;7.97;3.33;;;6.10;64.30;;;;;;2277164;56;21048;-67
2024/01/16 12:28:00;;;;;;;6.55;3.22;;;6.10;64.10;;;;;;2510136;54;21052;-66
2024/01/16 12:30:28;;;;;;;8.70;3.72;;;6.10;64.00;;;;;;2509416;55;20924;-67
2024/01/16 12:33:06;;;;;;;8.57;3.97;;;6.10;64.00;;;;;;2510040;54;21087;-67
2024/01/16 12:35:59;;;;;;;6.40;3.20;;;6.10;63.70;;;;;;2276747;56;21023;-67
2024/01/16 12:38:27;;;;;;;7.60;3.55;;;6.10;63.40;;;;;;2276744;56;21777;-66
2024/01/16 12:40:53;;;;;;;7.85;3.53;;;6.10;64.00;;;;;;2277591;55;20956;-68
2024/01/16 12:43:21;;;;;;;5.80;3.20;;;6.10;64.00;;;;;;2277087;56;20956;-67
2024/01/16 12:45:55;;;;;;;8.45;3.92;;;6.20;64.10;;;;;;2277491;56;20999;-69
2024/01/16 12:48:23;;;;;;;7.43;3.58;;;6.20;64.00;;;;;;2509588;54;21012;-68
2024/01/16 12:50:50;;;;;;;7.97;3.42;;;6.20;64.20;;;;;;2277398;56;21840;-67
2024/01/16 12:53:18;;;;;;;7.05;3.47;;;6.20;64.00;;;;;;2509087;55;21456;-67
2024/01/16 12:55:45;;;;;;;8.18;3.70;;;6.20;64.60;;;;;;2276700;56;20956;-67
2024/01/16 12:58:20;;;;;;;7.22;3.72;;;6.20;63.90;;;;;;2281094;55;21395;-67
2024/01/16 13:00:48;;;;;;;8.20;4.10;;;6.30;63.80;;;;;;2278556;55;20976;-66